Time;durP1;ratioP1;P1;durP2;ratioP2;P2;SDS_P1;SDS_P2;PMS_P1;PMS_P2;Temp;Humidity;BMP_temperature;BMP_pressure;BME280_temperature;BME280_humidity;BME280_pressure;Samples;Min_cycle;Max_cycle;Signal;HPM_P1;HPM_P2
2024/03/29 00:01:35;;;;;;;;;;;;;;;18.12;49.52;100386.56;5091535;28;1046;-50
2024/03/29 00:04:00;;;;;;;;;;;;;;;17.44;50.89;100389.13;5087372;28;1156;-47
2024/03/29 00:06:26;;;;;;;;;;;;;;;16.78;50.93;100384.97;5097204;28;994;-47
2024/03/29 00:08:51;;;;;;;;;;;;;;;16.50;49.86;100375.53;5093058;28;1067;-51
2024/03/29 00:11:17;;;;;;;;;;;;;;;16.39;48.93;100385.72;5091219;28;1917;-47
2024/03/29 00:13:42;;;;;;;;;;;;;;;17.40;50.64;100382.59;5097579;28;1034;-49
2024/03/29 00:16:08;;;;;;;;;;;;;;;16.60;50.97;100387.25;5097511;28;1112;-49
2024/03/29 00:18:33;;;;;;;;;;;;;;;16.33;49.80;100387.66;5096934;28;1022;-46
2024/03/29 00:20:59;;;;;;;;;;;;;;;16.23;48.84;100398.69;5097050;28;1075;-47
2024/03/29 00:23:24;;;;;;;;;;;;;;;16.00;48.49;100402.88;5095305;28;2494;-50
2024/03/29 00:25:50;;;;;;;;;;;;;;;17.24;49.67;100401.13;5082782;28;943;-50
2024/03/29 00:28:15;;;;;;;;;;;;;;;16.52;50.11;100406.25;5084590;28;1452;-51
2024/03/29 00:30:41;;;;;;;;;;;;;;;16.24;49.54;100414.88;5096600;28;1054;-49
2024/03/29 00:33:06;;;;;;;;;;;;;;;16.02;48.74;100417.97;5092322;28;1971;-49
2024/03/29 00:35:32;;;;;;;;;;;;;;;16.02;48.54;100423.44;5090938;28;1074;-45
2024/03/29 00:37:57;;;;;;;;;;;;;;;16.79;49.86;100421.47;5097099;28;1026;-51
2024/03/29 00:40:23;;;;;;;;;;;;;;;17.30;50.06;100434.06;5097176;28;999;-48
2024/03/29 00:42:48;;;;;;;;;;;;;;;18.46;49.18;100430.44;5096588;28;1025;-48
2024/03/29 00:45:14;;;;;;;;;;;;;;;17.24;51.42;100420.38;5092192;28;1022;-50
2024/03/29 00:47:40;;;;;;;;;;;;;;;16.77;50.80;100424.50;5096692;28;1069;-52
2024/03/29 00:50:07;;;;;;;;;;;;;;;16.55;49.82;100416.66;5083815;28;1073;-51
2024/03/29 00:52:33;;;;;;;;;;;;;;;16.38;49.03;100415.09;5096337;28;1976;-51
2024/03/29 00:54:58;;;;;;;;;;;;;;;17.64;50.58;100406.53;5096777;28;992;-47
2024/03/29 00:57:24;;;;;;;;;;;;;;;16.69;51.17;100412.19;5095491;28;1042;-49
2024/03/29 00:59:50;;;;;;;;;;;;;;;16.53;49.75;100408.69;5096597;28;1097;-48
2024/03/29 01:02:15;;;;;;;;;;;;;;;16.86;50.03;100411.00;5086009;28;1177;-50
2024/03/29 01:04:41;;;;;;;;;;;;;;;16.76;50.64;100400.91;5096313;28;1073;-50
2024/03/29 01:07:06;;;;;;;;;;;;;;;16.32;49.78;100396.19;5096676;28;1083;-47
2024/03/29 01:09:32;;;;;;;;;;;;;;;16.16;49.23;100398.16;5089389;28;1181;-50
2024/03/29 01:11:57;;;;;;;;;;;;;;;17.02;49.37;100392.53;5095840;28;1957;-50
2024/03/29 01:14:23;;;;;;;;;;;;;;;16.86;50.18;100389.84;5096259;28;1030;-47
2024/03/29 01:16:48;;;;;;;;;;;;;;;16.37;49.92;100394.25;5095944;28;1015;-50
2024/03/29 01:19:14;;;;;;;;;;;;;;;16.21;49.04;100395.41;5096040;28;1077;-50
2024/03/29 01:21:39;;;;;;;;;;;;;;;17.14;49.57;100401.22;5076384;28;1178;-50
2024/03/29 01:24:05;;;;;;;;;;;;;;;16.75;50.51;100402.00;5090589;28;2470;-51
2024/03/29 01:26:30;;;;;;;;;;;;;;;16.26;50.08;100400.88;5095788;28;1101;-46
2024/03/29 01:28:56;;;;;;;;;;;;;;;16.20;48.99;100393.75;5095869;28;1050;-47
2024/03/29 01:31:22;;;;;;;;;;;;;;;16.90;49.52;100396.44;5096172;28;1901;-49
2024/03/29 01:33:47;;;;;;;;;;;;;;;16.67;50.53;100400.66;5089456;28;994;-48
2024/03/29 01:36:13;;;;;;;;;;;;;;;16.33;49.65;100400.59;5081889;28;1129;-47
2024/03/29 01:38:38;;;;;;;;;;;;;;;16.65;50.29;100407.53;5096230;28;1046;-48
2024/03/29 01:41:04;;;;;;;;;;;;;;;16.61;50.14;100407.28;5082514;28;1081;-45
2024/03/29 01:43:29;;;;;;;;;;;;;;;16.22;49.87;100417.06;5084120;28;1153;-49
2024/03/29 01:45:55;;;;;;;;;;;;;;;17.58;49.32;100419.53;5093823;28;1244;-47
2024/03/29 01:48:23;;;;;;;;;;;;;;;16.50;50.60;100433.16;5096312;28;1065;-49
2024/03/29 01:50:49;;;;;;;;;;;;;;;16.31;49.50;100443.94;5095064;28;1114;-49
2024/03/29 01:53:15;;;;;;;;;;;;;;;16.16;48.88;100447.53;5095893;28;2415;-49
2024/03/29 01:55:41;;;;;;;;;;;;;;;16.28;48.92;100439.81;5095970;28;1145;-50
2024/03/29 01:58:07;;;;;;;;;;;;;;;16.76;50.01;100442.91;5090393;28;1185;-51
2024/03/29 02:00:32;;;;;;;;;;;;;;;16.31;49.49;100430.22;5082556;28;1015;-52
2024/03/29 02:03:02;;;;;;;;;;;;;;;16.11;48.86;100433.84;5074466;28;1182;-50
2024/03/29 02:05:27;;;;;;;;;;;;;;;16.76;49.51;100456.63;5082226;28;1173;-48
2024/03/29 02:07:53;;;;;;;;;;;;;;;16.56;50.03;100451.22;5095885;28;1030;-47
2024/03/29 02:10:19;;;;;;;;;;;;;;;16.14;49.68;100447.81;5068931;28;1235;-51
2024/03/29 02:12:44;;;;;;;;;;;;;;;16.82;49.64;100456.63;5088442;28;1902;-51
2024/03/29 02:15:14;;;;;;;;;;;;;;;16.61;50.36;100453.97;5089803;28;966;-51
2024/03/29 02:17:39;;;;;;;;;;;;;;;16.22;49.66;100440.94;5088920;28;1079;-51
2024/03/29 02:20:05;;;;;;;;;;;;;;;16.43;49.96;100450.72;5095934;28;1326;-49
2024/03/29 02:22:31;;;;;;;;;;;;;;;16.80;49.77;100445.06;5087938;28;2423;-49
2024/03/29 02:24:56;;;;;;;;;;;;;;;16.31;49.72;100447.47;5095503;28;1047;-48
2024/03/29 02:27:22;;;;;;;;;;;;;;;16.14;49.01;100455.22;5095808;28;1038;-49
2024/03/29 02:29:48;;;;;;;;;;;;;;;16.83;49.69;100466.47;5096079;28;1160;-50
2024/03/29 02:32:13;;;;;;;;;;;;;;;16.66;50.04;100464.09;5098430;28;1905;-47
2024/03/29 02:34:39;;;;;;;;;;;;;;;16.20;49.53;100459.59;5099218;28;1062;-48
2024/03/29 02:37:06;;;;;;;;;;;;;;;16.25;49.37;100463.13;5098688;28;1018;-48
2024/03/29 02:39:31;;;;;;;;;;;;;;;17.09;49.61;100478.16;5092945;28;1229;-51
2024/03/29 02:41:57;;;;;;;;;;;;;;;16.38;49.96;100474.63;5091490;28;1100;-47
2024/03/29 02:44:22;;;;;;;;;;;;;;;16.95;50.04;100486.22;5085663;28;1204;-48
2024/03/29 02:46:48;;;;;;;;;;;;;;;16.67;50.30;100479.47;5098564;28;1157;-50
2024/03/29 02:49:13;;;;;;;;;;;;;;;16.28;49.78;100485.66;5098854;28;1050;-49
2024/03/29 02:51:39;;;;;;;;;;;;;;;17.53;49.37;100488.31;5086296;28;1898;-47
2024/03/29 02:54:04;;;;;;;;;;;;;;;16.67;49.95;100498.69;5097519;28;1827;-51
2024/03/29 02:56:30;;;;;;;;;;;;;;;16.24;49.57;100494.44;5098702;28;1169;-49
2024/03/29 02:58:56;;;;;;;;;;;;;;;16.32;49.48;100489.47;5089711;28;1201;-50
2024/03/29 03:01:21;;;;;;;;;;;;;;;17.45;49.64;100494.44;5098940;28;1081;-51
2024/03/29 03:03:47;;;;;;;;;;;;;;;16.58;50.30;100491.03;5095433;28;1110;-47
2024/03/29 03:06:12;;;;;;;;;;;;;;;16.22;49.48;100484.84;5086735;28;1087;-48
2024/03/29 03:11:22;;;;;;;;;;;;;;;17.28;49.45;100497.56;5081062;28;1905;-49
2024/03/29 03:13:47;;;;;;;;;;;;;;;16.46;49.95;100500.69;5098273;28;1030;-46
2024/03/29 03:16:13;;;;;;;;;;;;;;;17.64;49.56;100505.53;5098475;28;1061;-46
2024/03/29 03:18:39;;;;;;;;;;;;;;;17.27;50.58;100504.16;5098217;28;1089;-49
2024/03/29 03:21:04;;;;;;;;;;;;;;;16.64;50.20;100502.81;5098507;28;1034;-48
2024/03/29 03:23:30;;;;;;;;;;;;;;;16.38;49.71;100511.16;5087192;28;1848;-49
2024/03/29 03:25:55;;;;;;;;;;;;;;;16.25;48.79;100506.22;5092571;28;1064;-48
2024/03/29 03:28:21;;;;;;;;;;;;;;;16.06;48.55;100508.72;5097871;28;1006;-48
2024/03/29 03:30:48;;;;;;;;;;;;;;;16.87;49.24;100516.97;5098365;28;1046;-47
2024/03/29 03:33:13;;;;;;;;;;;;;;;16.19;49.86;100507.34;5098176;28;1917;-48
2024/03/29 03:35:39;;;;;;;;;;;;;;;17.27;49.80;100513.22;5084467;28;1026;-46
2024/03/29 03:38:04;;;;;;;;;;;;;;;16.98;50.80;100509.56;5097899;28;1118;-48
2024/03/29 03:40:30;;;;;;;;;;;;;;;16.79;50.92;100509.31;5097507;28;1077;-46
2024/03/29 03:42:55;;;;;;;;;;;;;;;18.28;49.20;100516.53;5097941;28;1041;-50
2024/03/29 03:45:21;;;;;;;;;;;;;;;16.93;51.07;100519.47;5096649;28;1054;-50
2024/03/29 03:47:46;;;;;;;;;;;;;;;16.57;50.08;100513.28;5091588;28;911;-49
2024/03/29 03:50:12;;;;;;;;;;;;;;;16.35;49.25;100519.91;5097507;28;1074;-50
2024/03/29 03:52:37;;;;;;;;;;;;;;;16.29;48.67;100512.00;5094646;28;2422;-51
2024/03/29 03:55:03;;;;;;;;;;;;;;;17.00;50.15;100526.56;5090910;28;1026;-51
2024/03/29 03:57:28;;;;;;;;;;;;;;;16.45;50.06;100530.03;5084513;28;1039;-48
2024/03/29 03:59:54;;;;;;;;;;;;;;;16.29;49.11;100529.25;5096478;28;928;-50
2024/03/29 04:02:19;;;;;;;;;;;;;;;16.18;48.16;100546.84;5093021;28;1032;-49
2024/03/29 04:04:48;;;;;;;;;;;;;;;17.33;49.48;100557.97;5090466;28;1158;-51
2024/03/29 04:07:14;;;;;;;;;;;;;;;16.46;50.17;100550.09;5090726;28;1073;-51
2024/03/29 04:09:39;;;;;;;;;;;;;;;16.08;49.50;100553.97;5091100;28;1138;-50
2024/03/29 04:12:05;;;;;;;;;;;;;;;16.05;48.44;100546.31;5097078;28;1909;-52
2024/03/29 04:14:30;;;;;;;;;;;;;;;16.96;49.42;100552.94;5097667;28;1093;-51
2024/03/29 04:16:56;;;;;;;;;;;;;;;16.32;49.83;100556.13;5097618;28;1120;-51
2024/03/29 04:19:21;;;;;;;;;;;;;;;16.07;48.96;100555.09;5083959;28;1070;-49
2024/03/29 04:21:47;;;;;;;;;;;;;;;15.97;48.09;100562.50;5089813;28;1173;-50
2024/03/29 04:24:12;;;;;;;;;;;;;;;17.15;49.11;100561.38;5092191;28;2600;-50
2024/03/29 04:26:38;;;;;;;;;;;;;;;16.29;50.07;100566.88;5089642;28;1014;-52
2024/03/29 04:29:04;;;;;;;;;;;;;;;17.61;49.37;100574.84;5091214;28;1299;-49
2024/03/29 04:31:30;;;;;;;;;;;;;;;17.57;49.90;100574.63;5089722;28;1984;-52
2024/03/29 04:33:55;;;;;;;;;;;;;;;16.81;50.22;100573.03;5091534;28;1035;-53
2024/03/29 04:36:21;;;;;;;;;;;;;;;16.45;49.88;100576.69;5096357;28;903;-51
2024/03/29 04:38:47;;;;;;;;;;;;;;;17.72;49.91;100579.16;5096971;28;1010;-54
2024/03/29 04:41:12;;;;;;;;;;;;;;;16.68;50.93;100579.97;5097159;28;990;-49
2024/03/29 04:43:38;;;;;;;;;;;;;;;16.47;49.75;100585.47;5083126;28;1134;-51
2024/03/29 04:46:10;;;;;;;;;;;;;;;17.75;49.71;100592.38;5096825;28;1212;-49
2024/03/29 04:48:41;;;;;;;;;;;;;;;16.70;50.50;100595.03;5095687;28;936;-49
2024/03/29 04:51:06;;;;;;;;;;;;;;;16.41;49.46;100603.03;5066656;28;1047;-50
2024/03/29 04:53:32;;;;;;;;;;;;;;;17.75;49.76;100600.63;5095753;28;2397;-48
2024/03/29 04:55:58;;;;;;;;;;;;;;;16.74;50.81;100601.59;5088944;28;1078;-50
2024/03/29 04:58:24;;;;;;;;;;;;;;;16.48;49.80;100611.84;5090360;28;1097;-46
2024/03/29 05:00:49;;;;;;;;;;;;;;;16.29;48.72;100614.31;5092494;28;1486;-48
2024/03/29 05:03:16;;;;;;;;;;;;;;;16.16;48.07;100625.84;5090584;28;996;-47
2024/03/29 05:05:42;;;;;;;;;;;;;;;16.05;47.46;100623.09;5092209;28;1173;-50
2024/03/29 05:08:07;;;;;;;;;;;;;;;16.61;46.98;100626.91;5095090;28;955;-51
2024/03/29 05:10:34;;;;;;;;;;;;;;;16.97;46.48;100632.34;5089353;28;1241;-50
2024/03/29 05:13:01;;;;;;;;;;;;;;;16.48;48.05;100641.19;5094869;28;1999;-53
2024/03/29 05:15:27;;;;;;;;;;;;;;;16.25;48.66;100643.41;5096013;28;1006;-53
2024/03/29 05:17:53;;;;;;;;;;;;;;;16.10;49.40;100643.41;5092645;28;1182;-46
2024/03/29 05:20:18;;;;;;;;;;;;;;;15.98;50.04;100649.97;5086066;28;1026;-50
2024/03/29 05:22:44;;;;;;;;;;;;;;;15.83;50.26;100658.19;5095823;28;2399;-47
2024/03/29 05:25:10;;;;;;;;;;;;;;;15.75;50.74;100659.50;5086769;28;947;-52
2024/03/29 05:27:35;;;;;;;;;;;;;;;15.62;51.08;100655.34;5095716;28;1014;-46
2024/03/29 05:30:01;;;;;;;;;;;;;;;17.08;47.84;100655.94;5085589;28;1119;-44
2024/03/29 05:32:28;;;;;;;;;;;;;;;17.19;47.33;100673.19;5092669;28;1905;-51
2024/03/29 05:34:54;;;;;;;;;;;;;;;16.41;49.42;100674.41;5087827;28;1105;-50
2024/03/29 05:37:19;;;;;;;;;;;;;;;16.16;50.46;100683.44;5095683;28;1018;-47
2024/03/29 05:39:45;;;;;;;;;;;;;;;16.02;50.61;100673.03;5095491;28;1084;-50
2024/03/29 05:42:12;;;;;;;;;;;;;;;15.81;51.33;100693.25;5095539;28;1158;-51
2024/03/29 05:44:37;;;;;;;;;;;;;;;16.94;48.72;100696.06;5095880;28;1003;-47
2024/03/29 05:47:04;;;;;;;;;;;;;;;17.49;47.18;100687.09;5081105;28;1042;-47
2024/03/29 05:49:30;;;;;;;;;;;;;;;16.63;49.56;100696.06;5089035;28;1015;-49
2024/03/29 05:51:56;;;;;;;;;;;;;;;16.23;50.68;100690.31;5082640;28;1909;-51
2024/03/29 05:54:22;;;;;;;;;;;;;;;16.14;51.01;100715.81;5095020;28;2605;-51
2024/03/29 05:56:48;;;;;;;;;;;;;;;15.93;51.50;100710.28;5082369;28;1074;-48
2024/03/29 05:59:13;;;;;;;;;;;;;;;16.79;49.63;100718.03;5095635;28;1003;-50
2024/03/29 06:01:39;;;;;;;;;;;;;;;17.72;47.09;100702.91;5095312;28;1097;-51
2024/03/29 06:04:13;;;;;;;;;;;;;;;16.71;49.59;100711.19;5090433;28;1108;-49
2024/03/29 06:06:39;;;;;;;;;;;;;;;16.39;50.55;100721.31;5087130;28;1116;-50
2024/03/29 06:09:04;;;;;;;;;;;;;;;16.19;51.28;100716.66;5096459;28;1541;-49
2024/03/29 06:11:31;;;;;;;;;;;;;;;16.30;51.37;100717.50;5086704;28;1988;-52
2024/03/29 06:19:08;;;;;;;;;;;;;;;16.51;50.90;100731.22;5099274;28;1042;-47
2024/03/29 06:21:38;;;;;;;;;;;;;;;16.26;51.24;100727.38;5099344;28;1050;-47
2024/03/29 06:24:05;;;;;;;;;;;;;;;16.05;52.07;100727.31;5093101;28;1101;-47
2024/03/29 06:26:30;;;;;;;;;;;;;;;16.02;52.11;100727.88;5092357;28;1102;-50
2024/03/29 06:28:56;;;;;;;;;;;;;;;16.94;50.05;100731.75;5099150;28;1121;-48
2024/03/29 06:31:22;;;;;;;;;;;;;;;17.70;47.68;100735.41;5099498;28;1984;-46
2024/03/29 06:33:47;;;;;;;;;;;;;;;16.85;49.88;100741.66;5092780;28;1089;-45
2024/03/29 06:36:13;;;;;;;;;;;;;;;16.55;50.94;100741.38;5084701;28;1125;-45
2024/03/29 06:38:38;;;;;;;;;;;;;;;16.45;51.29;100748.78;5099304;28;1086;-48
2024/03/29 06:41:04;;;;;;;;;;;;;;;16.51;51.28;100755.91;5099491;28;1050;-50
2024/03/29 06:43:29;;;;;;;;;;;;;;;17.91;47.70;100771.09;5092996;28;1065;-50
2024/03/29 06:45:56;;;;;;;;;;;;;;;17.16;49.65;100769.09;5092070;28;1158;-50
2024/03/29 06:48:21;;;;;;;;;;;;;;;16.73;50.69;100778.47;5098839;28;1113;-50
2024/03/29 06:50:47;;;;;;;;;;;;;;;16.45;51.46;100768.00;5099210;28;1113;-51
2024/03/29 06:53:12;;;;;;;;;;;;;;;16.36;51.55;100763.03;5099560;28;1901;-51
2024/03/29 06:55:38;;;;;;;;;;;;;;;16.94;50.44;100770.22;5098682;28;1170;-47
2024/03/29 06:58:04;;;;;;;;;;;;;;;17.62;48.32;100763.47;5092183;28;1093;-47
2024/03/29 07:00:30;;;;;;;;;;;;;;;16.88;50.34;100766.66;5091594;28;1077;-48
2024/03/29 07:02:55;;;;;;;;;;;;;;;16.54;51.30;100780.09;5098877;28;1027;-45
2024/03/29 07:05:21;;;;;;;;;;;;;;;16.37;51.59;100775.69;5098357;28;1051;-47
2024/03/29 07:07:47;;;;;;;;;;;;;;;16.23;52.16;100772.63;5098703;28;1007;-48
2024/03/29 07:10:12;;;;;;;;;;;;;;;16.16;52.22;100776.72;5085884;28;1270;-48
2024/03/29 07:12:38;;;;;;;;;;;;;;;16.58;51.60;100778.44;5097496;28;1898;-51
2024/03/29 07:15:04;;;;;;;;;;;;;;;17.89;47.92;100774.09;5099138;28;1249;-52
2024/03/29 07:17:29;;;;;;;;;;;;;;;17.04;49.83;100770.22;5097327;28;1144;-48
2024/03/29 07:19:55;;;;;;;;;;;;;;;16.59;51.28;100775.44;5098669;28;1148;-50
2024/03/29 07:22:21;;;;;;;;;;;;;;;16.47;51.51;100783.09;5098295;28;1177;-51
2024/03/29 07:24:46;;;;;;;;;;;;;;;16.26;52.07;100782.25;5089302;28;1058;-46
2024/03/29 07:27:14;;;;;;;;;;;;;;;16.31;52.19;100784.16;5097433;28;1062;-48
2024/03/29 07:29:40;;;;;;;;;;;;;;;17.74;48.66;100777.72;5098319;28;1080;-48
2024/03/29 07:32:05;;;;;;;;;;;;;;;17.07;50.06;100777.91;5098285;28;1902;-50
2024/03/29 07:34:31;;;;;;;;;;;;;;;16.63;51.43;100775.69;5091169;28;1635;-48
2024/03/29 07:36:57;;;;;;;;;;;;;;;16.41;51.91;100795.16;5088848;28;896;-51
2024/03/29 07:39:22;;;;;;;;;;;;;;;16.35;52.09;100788.81;5085047;28;1153;-50
2024/03/29 07:41:48;;;;;;;;;;;;;;;16.19;52.27;100787.16;5097763;28;1062;-50
2024/03/29 07:44:13;;;;;;;;;;;;;;;17.57;49.05;100785.47;5097946;28;1121;-50
2024/03/29 07:46:40;;;;;;;;;;;;;;;17.27;49.58;100777.03;5097966;28;1102;-49
2024/03/29 07:49:05;;;;;;;;;;;;;;;16.74;50.99;100791.06;5094608;28;1077;-46
2024/03/29 07:51:31;;;;;;;;;;;;;;;16.48;51.85;100792.16;5087456;28;1897;-47
2024/03/29 07:53:56;;;;;;;;;;;;;;;16.34;52.06;100795.44;5084308;28;1229;-46
2024/03/29 07:56:22;;;;;;;;;;;;;;;16.19;52.67;100804.44;5097716;28;1101;-48
2024/03/29 07:58:54;;;;;;;;;;;;;;;16.38;52.25;100796.53;5094091;28;1066;-51
2024/03/29 08:01:22;;;;;;;;;;;;;;;17.88;48.45;100785.34;5087876;28;990;-50
2024/03/29 08:03:50;;;;;;;;;;;;;;;17.33;49.47;100783.34;5097905;28;1089;-46
2024/03/29 08:06:17;;;;;;;;;;;;;;;16.73;51.24;100786.69;5097534;28;1022;-47
2024/03/29 08:08:43;;;;;;;;;;;;;;;16.51;51.70;100783.34;5093430;28;1042;-49
2024/03/29 08:11:10;;;;;;;;;;;;;;;16.35;52.25;100797.06;5097426;28;1296;-48
2024/03/29 08:13:35;;;;;;;;;;;;;;;16.28;52.36;100785.53;5097275;28;1989;-49
2024/03/29 08:16:01;;;;;;;;;;;;;;;17.33;50.11;100791.59;5097207;28;1046;-50
2024/03/29 08:18:26;;;;;;;;;;;;;;;17.53;49.23;100795.38;5096933;28;1089;-48
2024/03/29 08:20:53;;;;;;;;;;;;;;;16.88;50.97;100776.78;5090235;28;1205;-50
2024/03/29 08:23:19;;;;;;;;;;;;;;;16.64;51.40;100779.28;5091304;28;1050;-49
2024/03/29 08:25:44;;;;;;;;;;;;;;;16.40;52.12;100782.53;5091255;28;891;-50
2024/03/29 08:28:10;;;;;;;;;;;;;;;16.40;52.19;100791.59;5096157;28;1093;-49
2024/03/29 08:30:36;;;;;;;;;;;;;;;16.26;52.48;100779.50;5090039;28;1177;-48
2024/03/29 08:33:05;;;;;;;;;;;;;;;17.43;49.96;100780.59;5090124;28;1980;-48
2024/03/29 08:35:31;;;;;;;;;;;;;;;17.48;49.46;100773.44;5097185;28;1197;-46
2024/03/29 08:37:57;;;;;;;;;;;;;;;16.87;51.05;100775.13;5083109;28;1089;-50
2024/03/29 08:40:23;;;;;;;;;;;;;;;16.56;51.59;100781.47;5096879;28;1061;-47
2024/03/29 08:42:49;;;;;;;;;;;;;;;16.37;52.26;100777.59;5097046;28;1082;-48
2024/03/29 08:45:15;;;;;;;;;;;;;;;16.30;52.39;100777.88;5096945;28;1096;-47
2024/03/29 08:47:40;;;;;;;;;;;;;;;16.17;52.70;100773.72;5096144;28;1050;-47
2024/03/29 08:50:06;;;;;;;;;;;;;;;17.50;49.46;100773.97;5083448;28;843;-46
2024/03/29 08:52:32;;;;;;;;;;;;;;;17.41;49.65;100762.72;5096076;28;1972;-48
2024/03/29 08:54:57;;;;;;;;;;;;;;;16.80;51.39;100772.66;5096694;28;1062;-49
2024/03/29 08:57:23;;;;;;;;;;;;;;;16.66;51.44;100772.41;5096753;28;1077;-48
2024/03/29 08:59:48;;;;;;;;;;;;;;;16.46;52.00;100775.94;5096248;28;1144;-46
2024/03/29 09:02:14;;;;;;;;;;;;;;;16.29;52.57;100773.47;5085957;28;1089;-48
2024/03/29 09:04:39;;;;;;;;;;;;;;;16.23;52.80;100774.56;5097033;28;1046;-52
2024/03/29 09:07:05;;;;;;;;;;;;;;;17.19;50.30;100771.28;5095898;28;1010;-49
2024/03/29 09:09:31;;;;;;;;;;;;;;;17.68;48.92;100767.84;5088977;28;1065;-51
2024/03/29 09:11:56;;;;;;;;;;;;;;;16.87;51.07;100772.41;5089423;28;1983;-50
2024/03/29 09:14:22;;;;;;;;;;;;;;;16.62;51.76;100771.31;5091266;28;1173;-53
2024/03/29 09:16:47;;;;;;;;;;;;;;;16.40;52.29;100774.31;5083190;28;1161;-53
2024/03/29 09:19:13;;;;;;;;;;;;;;;16.31;52.67;100767.69;5089297;28;1034;-49
2024/03/29 09:21:39;;;;;;;;;;;;;;;17.02;51.12;100771.59;5075752;28;1053;-52
2024/03/29 09:24:05;;;;;;;;;;;;;;;17.77;48.88;100759.84;5083181;28;1105;-52
2024/03/29 09:26:31;;;;;;;;;;;;;;;17.01;50.67;100765.28;5094332;28;981;-53
2024/03/29 09:28:56;;;;;;;;;;;;;;;16.63;51.74;100761.97;5096374;28;1021;-52
2024/03/29 09:31:22;;;;;;;;;;;;;;;16.46;52.09;100770.47;5096205;28;946;-50
2024/03/29 09:33:52;;;;;;;;;;;;;;;16.30;52.76;100764.16;5095855;28;1974;-48
2024/03/29 09:36:19;;;;;;;;;;;;;;;16.21;52.67;100768.50;5095876;28;1117;-49
2024/03/29 09:38:45;;;;;;;;;;;;;;;16.94;51.39;100764.72;5087327;28;874;-50
2024/03/29 09:41:11;;;;;;;;;;;;;;;17.79;49.00;100774.97;5098503;28;1089;-45
2024/03/29 09:43:39;;;;;;;;;;;;;;;16.95;51.14;100779.31;5070013;28;1114;-53
2024/03/29 09:46:04;;;;;;;;;;;;;;;16.62;51.70;100767.72;5100078;28;1116;-45
2024/03/29 09:48:36;;;;;;;;;;;;;;;16.45;52.33;100762.50;5082431;28;1110;-49
2024/03/29 09:51:03;;;;;;;;;;;;;;;16.36;52.59;100768.53;5080480;28;992;-52
2024/03/29 09:53:28;;;;;;;;;;;;;;;16.75;51.76;100762.50;5070723;28;1910;-49
2024/03/29 09:55:54;;;;;;;;;;;;;;;17.84;48.95;100756.78;5079770;28;1093;-49
2024/03/29 09:58:19;;;;;;;;;;;;;;;17.05;50.80;100766.34;5088795;28;1126;-52
2024/03/29 10:00:45;;;;;;;;;;;;;;;16.64;51.79;100763.63;5099511;28;1082;-48
2024/03/29 10:03:10;;;;;;;;;;;;;;;16.54;52.23;100749.91;5089783;28;894;-52
2024/03/29 10:05:36;;;;;;;;;;;;;;;16.39;52.46;100759.75;5068397;28;1053;-49
2024/03/29 10:08:06;;;;;;;;;;;;;;;16.45;52.48;100762.50;5090909;28;1192;-50
2024/03/29 10:10:32;;;;;;;;;;;;;;;17.94;48.74;100759.53;5065224;28;1147;-46
2024/03/29 10:12:58;;;;;;;;;;;;;;;17.12;50.79;100776.25;5099516;28;1902;-48
2024/03/29 10:15:26;;;;;;;;;;;;;;;16.79;51.62;100753.72;5086146;28;917;-48
2024/03/29 10:17:52;;;;;;;;;;;;;;;16.60;52.24;100765.25;5090602;28;1138;-43
2024/03/29 10:20:18;;;;;;;;;;;;;;;16.47;52.36;100752.09;5095641;28;1163;-50
2024/03/29 10:22:44;;;;;;;;;;;;;;;16.35;52.83;100747.66;5089935;28;1134;-51
2024/03/29 10:25:09;;;;;;;;;;;;;;;16.44;52.98;100745.22;5095735;28;1074;-47
2024/03/29 10:27:35;;;;;;;;;;;;;;;17.86;49.19;100735.31;5099695;28;1112;-51
2024/03/29 10:30:02;;;;;;;;;;;;;;;17.08;50.87;100732.00;5099054;28;1104;-46
2024/03/29 10:32:28;;;;;;;;;;;;;;;16.72;51.95;100745.78;5098929;28;1910;-45
2024/03/29 10:34:53;;;;;;;;;;;;;;;16.61;52.10;100725.75;5099383;28;1409;-47
2024/03/29 10:37:26;;;;;;;;;;;;;;;16.42;52.76;100728.19;5098343;28;1122;-46
2024/03/29 10:39:52;;;;;;;;;;;;;;;16.34;52.86;100729.56;5092427;28;1467;-41
2024/03/29 10:42:19;;;;;;;;;;;;;;;16.84;52.00;100720.78;5088993;28;1051;-50
2024/03/29 10:44:44;;;;;;;;;;;;;;;17.93;48.94;100719.34;5081194;28;1054;-42
2024/03/29 10:47:10;;;;;;;;;;;;;;;17.12;50.94;100732.28;5081278;28;1082;-45
2024/03/29 10:49:35;;;;;;;;;;;;;;;16.71;52.01;100733.97;5078464;28;1062;-44
2024/03/29 10:52:02;;;;;;;;;;;;;;;16.52;52.69;100741.09;5087790;28;1902;-44
2024/03/29 10:54:28;;;;;;;;;;;;;;;16.45;52.98;100741.38;5080808;28;1475;-44
2024/03/29 10:57:00;;;;;;;;;;;;;;;16.43;52.81;100740.81;5099344;28;1122;-42
2024/03/29 10:59:35;;;;;;;;;;;;;;;16.29;53.33;100746.03;5099329;28;1066;-44
2024/03/29 11:02:01;;;;;;;;;;;;;;;17.04;51.59;100748.25;5090533;28;1126;-46
2024/03/29 11:04:30;;;;;;;;;;;;;;;17.93;48.97;100749.63;5098152;28;1096;-44
2024/03/29 11:06:57;;;;;;;;;;;;;;;17.02;51.48;100753.19;5080623;28;1082;-46
2024/03/29 11:09:22;;;;;;;;;;;;;;;16.73;52.16;100753.75;5080388;28;1054;-43
2024/03/29 11:11:49;;;;;;;;;;;;;;;16.54;52.59;100760.88;5076968;28;1972;-43
2024/03/29 11:14:20;;;;;;;;;;;;;;;16.46;52.87;100764.97;5076321;28;1145;-46
2024/03/29 11:16:48;;;;;;;;;;;;;;;16.25;53.37;100767.69;5064032;28;1126;-44
2024/03/29 11:19:14;;;;;;;;;;;;;;;16.62;52.68;100771.31;5065387;28;1154;-44
2024/03/29 11:21:42;;;;;;;;;;;;;;;17.97;49.37;100758.94;5063791;28;1224;-44
2024/03/29 11:24:07;;;;;;;;;;;;;;;17.25;50.99;100759.19;5078117;28;1144;-45
2024/03/29 11:26:34;;;;;;;;;;;;;;;16.76;52.27;100758.69;5068487;28;1106;-44
2024/03/29 11:29:00;;;;;;;;;;;;;;;16.62;52.65;100749.34;5065614;28;1024;-44
2024/03/29 11:31:26;;;;;;;;;;;;;;;16.46;53.10;100754.00;5076818;28;1051;-45
2024/03/29 11:33:53;;;;;;;;;;;;;;;16.42;53.01;100745.50;5065736;28;1906;-51
2024/03/29 11:36:21;;;;;;;;;;;;;;;16.35;53.08;100746.84;5076846;28;1034;-45
2024/03/29 11:38:47;;;;;;;;;;;;;;;16.30;53.53;100752.31;5058487;28;907;-46
2024/03/29 11:41:13;;;;;;;;;;;;;;;17.48;50.64;100751.44;5073018;28;1023;-49
2024/03/29 11:43:39;;;;;;;;;;;;;;;17.52;50.13;100741.53;5077949;28;1077;-48
2024/03/29 11:46:08;;;;;;;;;;;;;;;16.92;51.95;100750.47;5077810;28;1050;-49
2024/03/29 11:48:35;;;;;;;;;;;;;;;16.70;52.39;100743.28;5077943;28;1026;-47
2024/03/29 11:51:01;;;;;;;;;;;;;;;16.44;52.95;100734.25;5077103;28;1085;-46
2024/03/29 11:53:27;;;;;;;;;;;;;;;16.44;53.27;100750.72;5078008;28;1975;-48
2024/03/29 11:55:53;;;;;;;;;;;;;;;16.34;53.53;100756.19;5090152;28;1062;-47
2024/03/29 11:58:22;;;;;;;;;;;;;;;16.13;53.94;100752.56;5077708;28;1033;-50
2024/03/29 12:00:48;;;;;;;;;;;;;;;17.34;51.17;100752.03;5077365;28;1058;-51
2024/03/29 12:03:17;;;;;;;;;;;;;;;17.65;50.06;100753.84;5074920;28;843;-48
2024/03/29 12:05:43;;;;;;;;;;;;;;;16.93;51.89;100758.41;5063668;28;1104;-45
2024/03/29 12:08:09;;;;;;;;;;;;;;;16.65;52.80;100762.53;5077132;28;1121;-47
2024/03/29 12:10:35;;;;;;;;;;;;;;;16.50;53.00;100749.59;5070781;28;1108;-47
2024/03/29 12:13:01;;;;;;;;;;;;;;;16.39;53.40;100754.25;5097354;28;1910;-50
2024/03/29 12:15:30;;;;;;;;;;;;;;;16.29;53.68;100746.03;5087144;28;1094;-46
2024/03/29 12:17:56;;;;;;;;;;;;;;;17.51;50.90;100742.63;5097459;28;1027;-44
2024/03/29 12:20:22;;;;;;;;;;;;;;;17.43;50.54;100744.84;5096849;28;1089;-48
2024/03/29 12:22:48;;;;;;;;;;;;;;;16.89;52.19;100748.28;5097435;28;1149;-46
2024/03/29 12:25:13;;;;;;;;;;;;;;;16.64;52.79;100749.06;5079237;28;1148;-46
2024/03/29 12:27:38;;;;;;;;;;;;;;;16.46;53.25;100745.75;5093175;28;916;-47
2024/03/29 12:30:05;;;;;;;;;;;;;;;16.34;53.27;100735.06;5093951;28;1109;-45
2024/03/29 12:32:33;;;;;;;;;;;;;;;16.30;53.48;100749.56;5086871;28;1910;-45
2024/03/29 12:35:07;;;;;;;;;;;;;;;16.79;52.61;100740.00;5080025;28;1154;-47
2024/03/29 12:37:32;;;;;;;;;;;;;;;17.97;49.40;100739.69;5076669;28;1046;-48
2024/03/29 12:39:59;;;;;;;;;;;;;;;17.14;51.25;100750.16;5083843;28;931;-45
2024/03/29 12:42:25;;;;;;;;;;;;;;;16.80;52.25;100747.13;5079214;28;1066;-51
2024/03/29 12:44:51;;;;;;;;;;;;;;;16.57;53.02;100747.41;5083389;28;1062;-46
2024/03/29 12:47:17;;;;;;;;;;;;;;;16.51;53.15;100731.22;5085198;28;1129;-48
2024/03/29 12:49:42;;;;;;;;;;;;;;;16.77;52.52;100749.34;5090661;28;1137;-44